sensor_id;sensor_type;location;lat;lon;timestamp;temperature;humidity
45803;DHT22;31504;51.716;9.184;2022-08-20T00:00:37;24.50;57.90
45803;DHT22;31504;51.716;9.184;2022-08-20T00:03:40;24.50;58.10
45803;DHT22;31504;51.716;9.184;2022-08-20T00:06:40;24.60;58.10
45803;DHT22;31504;51.716;9.184;2022-08-20T00:09:42;24.60;58.30
45803;DHT22;31504;51.716;9.184;2022-08-20T00:12:44;24.60;58.20
45803;DHT22;31504;51.716;9.184;2022-08-20T00:15:45;24.60;58.30
45803;DHT22;31504;51.716;9.184;2022-08-20T00:18:46;24.70;58.60
45803;DHT22;31504;51.716;9.184;2022-08-20T00:21:47;24.60;58.80
45803;DHT22;31504;51.716;9.184;2022-08-20T00:24:47;24.70;58.80
45803;DHT22;31504;51.716;9.184;2022-08-20T00:27:48;24.70;58.80
45803;DHT22;31504;51.716;9.184;2022-08-20T00:30:48;24.70;58.90
45803;DHT22;31504;51.716;9.184;2022-08-20T00:33:50;24.60;59.00
45803;DHT22;31504;51.716;9.184;2022-08-20T00:36:50;24.70;59.00
45803;DHT22;31504;51.716;9.184;2022-08-20T00:39:51;24.60;59.10
45803;DHT22;31504;51.716;9.184;2022-08-20T00:42:55;24.70;59.30
45803;DHT22;31504;51.716;9.184;2022-08-20T00:45:59;24.60;59.40
45803;DHT22;31504;51.716;9.184;2022-08-20T00:49:01;24.60;59.50
45803;DHT22;31504;51.716;9.184;2022-08-20T00:52:08;24.60;59.60
45803;DHT22;31504;51.716;9.184;2022-08-20T00:55:11;24.60;59.50
45803;DHT22;31504;51.716;9.184;2022-08-20T00:58:11;24.60;59.40
45803;DHT22;31504;51.716;9.184;2022-08-20T01:01:13;24.70;59.30
45803;DHT22;31504;51.716;9.184;2022-08-20T01:04:15;24.70;59.30
45803;DHT22;31504;51.716;9.184;2022-08-20T01:07:15;24.60;59.90
45803;DHT22;31504;51.716;9.184;2022-08-20T01:10:26;24.60;59.20
45803;DHT22;31504;51.716;9.184;2022-08-20T01:13:27;24.60;59.30
45803;DHT22;31504;51.716;9.184;2022-08-20T01:16:29;24.60;59.30
45803;DHT22;31504;51.716;9.184;2022-08-20T01:19:39;24.60;59.30
45803;DHT22;31504;51.716;9.184;2022-08-20T01:23:03;24.50;59.30
45803;DHT22;31504;51.716;9.184;2022-08-20T01:26:29;24.50;59.30
45803;DHT22;31504;51.716;9.184;2022-08-20T01:29:36;24.50;59.30
45803;DHT22;31504;51.716;9.184;2022-08-20T01:32:38;24.50;59.20
45803;DHT22;31504;51.716;9.184;2022-08-20T01:35:40;24.50;59.20
45803;DHT22;31504;51.716;9.184;2022-08-20T01:38:43;24.50;59.40
45803;DHT22;31504;51.716;9.184;2022-08-20T01:44:50;24.50;59.50
45803;DHT22;31504;51.716;9.184;2022-08-20T01:47:52;24.50;59.50
45803;DHT22;31504;51.716;9.184;2022-08-20T01:51:08;24.50;59.40
45803;DHT22;31504;51.716;9.184;2022-08-20T01:54:09;24.50;59.40
45803;DHT22;31504;51.716;9.184;2022-08-20T01:57:13;24.40;59.30
45803;DHT22;31504;51.716;9.184;2022-08-20T02:00:16;24.40;59.30
45803;DHT22;31504;51.716;9.184;2022-08-20T02:03:16;24.40;59.30
45803;DHT22;31504;51.716;9.184;2022-08-20T02:06:17;24.40;59.40
45803;DHT22;31504;51.716;9.184;2022-08-20T02:09:18;24.40;59.50
45803;DHT22;31504;51.716;9.184;2022-08-20T02:12:19;24.40;59.60
45803;DHT22;31504;51.716;9.184;2022-08-20T02:15:19;24.40;59.60
45803;DHT22;31504;51.716;9.184;2022-08-20T02:18:20;24.40;59.70
45803;DHT22;31504;51.716;9.184;2022-08-20T02:21:21;24.40;59.80
45803;DHT22;31504;51.716;9.184;2022-08-20T02:24:22;24.40;59.90
45803;DHT22;31504;51.716;9.184;2022-08-20T02:27:22;24.40;59.90
45803;DHT22;31504;51.716;9.184;2022-08-20T02:30:32;24.40;60.00
45803;DHT22;31504;51.716;9.184;2022-08-20T02:33:33;24.40;60.00
45803;DHT22;31504;51.716;9.184;2022-08-20T02:36:35;24.40;60.00
45803;DHT22;31504;51.716;9.184;2022-08-20T02:39:36;24.40;60.10
45803;DHT22;31504;51.716;9.184;2022-08-20T02:42:37;24.40;60.20
45803;DHT22;31504;51.716;9.184;2022-08-20T02:45:40;24.40;60.30
45803;DHT22;31504;51.716;9.184;2022-08-20T02:48:43;24.40;60.30
45803;DHT22;31504;51.716;9.184;2022-08-20T02:51:44;24.40;60.40
45803;DHT22;31504;51.716;9.184;2022-08-20T02:54:45;24.40;60.50
45803;DHT22;31504;51.716;9.184;2022-08-20T02:57:47;24.30;60.40
45803;DHT22;31504;51.716;9.184;2022-08-20T03:00:48;24.30;60.50
45803;DHT22;31504;51.716;9.184;2022-08-20T03:03:49;24.40;60.50
45803;DHT22;31504;51.716;9.184;2022-08-20T03:06:50;24.30;60.50
45803;DHT22;31504;51.716;9.184;2022-08-20T03:09:51;24.40;60.60
45803;DHT22;31504;51.716;9.184;2022-08-20T03:12:51;24.40;60.70
45803;DHT22;31504;51.716;9.184;2022-08-20T03:15:55;24.30;60.80
45803;DHT22;31504;51.716;9.184;2022-08-20T03:18:56;24.40;60.90
45803;DHT22;31504;51.716;9.184;2022-08-20T03:21:57;24.40;61.00
45803;DHT22;31504;51.716;9.184;2022-08-20T03:24:57;24.30;61.00
45803;DHT22;31504;51.716;9.184;2022-08-20T03:27:58;24.30;61.10
45803;DHT22;31504;51.716;9.184;2022-08-20T03:30:59;24.30;61.30
45803;DHT22;31504;51.716;9.184;2022-08-20T03:33:59;24.40;61.40
45803;DHT22;31504;51.716;9.184;2022-08-20T03:37:00;24.30;61.40
45803;DHT22;31504;51.716;9.184;2022-08-20T03:40:04;24.30;61.60
45803;DHT22;31504;51.716;9.184;2022-08-20T03:43:07;24.30;61.70
45803;DHT22;31504;51.716;9.184;2022-08-20T03:46:08;24.30;61.70
45803;DHT22;31504;51.716;9.184;2022-08-20T03:49:08;24.30;61.80
45803;DHT22;31504;51.716;9.184;2022-08-20T03:52:09;24.30;61.80
45803;DHT22;31504;51.716;9.184;2022-08-20T03:55:10;24.40;61.90
45803;DHT22;31504;51.716;9.184;2022-08-20T03:58:11;24.40;61.90
45803;DHT22;31504;51.716;9.184;2022-08-20T04:01:11;24.30;61.90
45803;DHT22;31504;51.716;9.184;2022-08-20T04:04:13;24.30;62.00
45803;DHT22;31504;51.716;9.184;2022-08-20T04:07:23;24.30;62.20
45803;DHT22;31504;51.716;9.184;2022-08-20T04:10:27;24.30;62.40
45803;DHT22;31504;51.716;9.184;2022-08-20T04:13:29;24.40;62.60
45803;DHT22;31504;51.716;9.184;2022-08-20T04:16:30;24.40;62.90
45803;DHT22;31504;51.716;9.184;2022-08-20T04:19:32;24.40;63.00
45803;DHT22;31504;51.716;9.184;2022-08-20T04:22:34;24.40;63.20
45803;DHT22;31504;51.716;9.184;2022-08-20T04:25:36;24.40;63.40
45803;DHT22;31504;51.716;9.184;2022-08-20T04:28:40;24.40;63.60
45803;DHT22;31504;51.716;9.184;2022-08-20T04:31:40;24.40;63.80
45803;DHT22;31504;51.716;9.184;2022-08-20T04:34:41;24.50;64.20
45803;DHT22;31504;51.716;9.184;2022-08-20T04:37:45;24.40;64.30
45803;DHT22;31504;51.716;9.184;2022-08-20T04:40:46;24.40;64.60
45803;DHT22;31504;51.716;9.184;2022-08-20T04:43:54;24.40;64.80
45803;DHT22;31504;51.716;9.184;2022-08-20T04:46:55;24.40;65.30
45803;DHT22;31504;51.716;9.184;2022-08-20T04:49:55;24.40;65.70
45803;DHT22;31504;51.716;9.184;2022-08-20T04:53:00;24.40;66.10
45803;DHT22;31504;51.716;9.184;2022-08-20T04:56:02;24.40;66.40
45803;DHT22;31504;51.716;9.184;2022-08-20T04:59:04;24.40;67.10
45803;DHT22;31504;51.716;9.184;2022-08-20T05:02:04;24.40;67.40
45803;DHT22;31504;51.716;9.184;2022-08-20T05:05:05;24.40;67.70
45803;DHT22;31504;51.716;9.184;2022-08-20T05:08:07;24.40;67.80
45803;DHT22;31504;51.716;9.184;2022-08-20T05:11:09;24.40;67.90
45803;DHT22;31504;51.716;9.184;2022-08-20T05:14:09;24.40;68.10
45803;DHT22;31504;51.716;9.184;2022-08-20T05:17:10;24.40;68.10
45803;DHT22;31504;51.716;9.184;2022-08-20T05:20:17;24.40;68.20
45803;DHT22;31504;51.716;9.184;2022-08-20T05:23:18;24.40;68.20
45803;DHT22;31504;51.716;9.184;2022-08-20T05:26:19;24.40;68.30
45803;DHT22;31504;51.716;9.184;2022-08-20T05:29:20;24.40;68.40
45803;DHT22;31504;51.716;9.184;2022-08-20T05:32:21;24.40;68.40
45803;DHT22;31504;51.716;9.184;2022-08-20T05:35:21;24.40;68.50
45803;DHT22;31504;51.716;9.184;2022-08-20T05:38:27;24.40;68.50
45803;DHT22;31504;51.716;9.184;2022-08-20T05:41:28;24.40;68.50
45803;DHT22;31504;51.716;9.184;2022-08-20T05:44:29;24.40;68.40
45803;DHT22;31504;51.716;9.184;2022-08-20T05:47:30;24.40;68.30
45803;DHT22;31504;51.716;9.184;2022-08-20T05:50:31;24.40;68.30
45803;DHT22;31504;51.716;9.184;2022-08-20T05:53:32;24.40;68.20
45803;DHT22;31504;51.716;9.184;2022-08-20T05:56:33;24.40;68.30
45803;DHT22;31504;51.716;9.184;2022-08-20T05:59:35;24.40;68.30
45803;DHT22;31504;51.716;9.184;2022-08-20T06:02:36;24.40;68.30
45803;DHT22;31504;51.716;9.184;2022-08-20T06:05:55;24.40;68.20
45803;DHT22;31504;51.716;9.184;2022-08-20T06:08:56;24.40;68.30
45803;DHT22;31504;51.716;9.184;2022-08-20T06:11:57;24.40;68.40
45803;DHT22;31504;51.716;9.184;2022-08-20T06:14:59;24.40;68.40
45803;DHT22;31504;51.716;9.184;2022-08-20T06:17:59;24.40;68.40
45803;DHT22;31504;51.716;9.184;2022-08-20T06:21:00;24.40;68.40
45803;DHT22;31504;51.716;9.184;2022-08-20T06:24:00;24.40;68.50
45803;DHT22;31504;51.716;9.184;2022-08-20T06:27:02;24.40;68.50
45803;DHT22;31504;51.716;9.184;2022-08-20T06:30:05;24.40;68.60
45803;DHT22;31504;51.716;9.184;2022-08-20T06:33:06;24.40;68.60
45803;DHT22;31504;51.716;9.184;2022-08-20T06:36:07;24.30;68.60
45803;DHT22;31504;51.716;9.184;2022-08-20T06:39:07;24.40;68.80
45803;DHT22;31504;51.716;9.184;2022-08-20T06:42:08;24.30;68.80
45803;DHT22;31504;51.716;9.184;2022-08-20T06:45:10;24.30;68.70
45803;DHT22;31504;51.716;9.184;2022-08-20T06:48:13;24.30;68.70
45803;DHT22;31504;51.716;9.184;2022-08-20T06:51:13;24.30;68.60
45803;DHT22;31504;51.716;9.184;2022-08-20T06:54:14;24.30;68.60
45803;DHT22;31504;51.716;9.184;2022-08-20T06:57:14;24.30;68.60
45803;DHT22;31504;51.716;9.184;2022-08-20T07:00:18;24.30;68.60
45803;DHT22;31504;51.716;9.184;2022-08-20T07:03:18;24.40;68.60
45803;DHT22;31504;51.716;9.184;2022-08-20T07:06:19;24.40;68.60
45803;DHT22;31504;51.716;9.184;2022-08-20T07:09:20;24.40;68.70
45803;DHT22;31504;51.716;9.184;2022-08-20T07:12:20;24.40;68.70
45803;DHT22;31504;51.716;9.184;2022-08-20T07:15:22;24.40;68.90
45803;DHT22;31504;51.716;9.184;2022-08-20T07:18:25;24.40;69.00
45803;DHT22;31504;51.716;9.184;2022-08-20T07:21:25;24.40;69.20
45803;DHT22;31504;51.716;9.184;2022-08-20T07:24:26;24.40;69.30
45803;DHT22;31504;51.716;9.184;2022-08-20T07:27:26;24.40;69.50
45803;DHT22;31504;51.716;9.184;2022-08-20T07:30:27;24.40;69.50
45803;DHT22;31504;51.716;9.184;2022-08-20T07:33:47;24.40;69.90
45803;DHT22;31504;51.716;9.184;2022-08-20T07:36:47;24.40;70.50
45803;DHT22;31504;51.716;9.184;2022-08-20T07:39:49;24.30;70.80
45803;DHT22;31504;51.716;9.184;2022-08-20T07:42:49;24.30;71.00
45803;DHT22;31504;51.716;9.184;2022-08-20T07:45:53;24.30;70.80
45803;DHT22;31504;51.716;9.184;2022-08-20T07:48:56;24.30;70.80
45803;DHT22;31504;51.716;9.184;2022-08-20T07:51:56;24.40;70.60
45803;DHT22;31504;51.716;9.184;2022-08-20T07:54:57;24.40;70.60
45803;DHT22;31504;51.716;9.184;2022-08-20T07:58:05;24.40;70.60
45803;DHT22;31504;51.716;9.184;2022-08-20T08:01:06;24.40;70.60
45803;DHT22;31504;51.716;9.184;2022-08-20T08:04:06;24.40;70.70
45803;DHT22;31504;51.716;9.184;2022-08-20T08:07:07;24.50;70.90
45803;DHT22;31504;51.716;9.184;2022-08-20T08:10:11;24.40;71.00
45803;DHT22;31504;51.716;9.184;2022-08-20T08:13:13;24.50;70.90
45803;DHT22;31504;51.716;9.184;2022-08-20T08:16:14;24.50;70.60
45803;DHT22;31504;51.716;9.184;2022-08-20T08:19:15;24.50;70.60
45803;DHT22;31504;51.716;9.184;2022-08-20T08:22:17;24.50;70.40
45803;DHT22;31504;51.716;9.184;2022-08-20T08:25:19;24.50;70.20
45803;DHT22;31504;51.716;9.184;2022-08-20T08:28:20;24.60;70.10
45803;DHT22;31504;51.716;9.184;2022-08-20T08:31:21;24.60;70.10
45803;DHT22;31504;51.716;9.184;2022-08-20T08:34:21;24.60;69.90
45803;DHT22;31504;51.716;9.184;2022-08-20T08:37:24;24.60;69.90
45803;DHT22;31504;51.716;9.184;2022-08-20T08:40:25;24.50;69.70
45803;DHT22;31504;51.716;9.184;2022-08-20T08:43:26;24.60;69.70
45803;DHT22;31504;51.716;9.184;2022-08-20T08:46:29;24.60;69.70
45803;DHT22;31504;51.716;9.184;2022-08-20T08:49:33;24.60;69.80
45803;DHT22;31504;51.716;9.184;2022-08-20T08:52:37;24.60;70.00
45803;DHT22;31504;51.716;9.184;2022-08-20T08:55:40;24.50;70.20
45803;DHT22;31504;51.716;9.184;2022-08-20T08:58:41;24.60;70.20
45803;DHT22;31504;51.716;9.184;2022-08-20T09:01:46;24.50;70.20
45803;DHT22;31504;51.716;9.184;2022-08-20T09:04:47;24.50;70.30
45803;DHT22;31504;51.716;9.184;2022-08-20T09:07:49;24.50;70.30
45803;DHT22;31504;51.716;9.184;2022-08-20T09:10:50;24.50;70.30
45803;DHT22;31504;51.716;9.184;2022-08-20T09:13:51;24.50;70.30
45803;DHT22;31504;51.716;9.184;2022-08-20T09:16:53;24.50;70.30
45803;DHT22;31504;51.716;9.184;2022-08-20T09:19:54;24.60;70.60
45803;DHT22;31504;51.716;9.184;2022-08-20T09:22:54;24.50;70.50
45803;DHT22;31504;51.716;9.184;2022-08-20T09:25:55;24.60;70.40
45803;DHT22;31504;51.716;9.184;2022-08-20T09:28:56;24.60;70.30
45803;DHT22;31504;51.716;9.184;2022-08-20T09:32:23;24.60;70.30
45803;DHT22;31504;51.716;9.184;2022-08-20T09:35:24;24.60;70.30
45803;DHT22;31504;51.716;9.184;2022-08-20T09:38:24;24.60;70.00
45803;DHT22;31504;51.716;9.184;2022-08-20T09:41:25;24.60;69.90
45803;DHT22;31504;51.716;9.184;2022-08-20T09:44:25;24.60;69.80
45803;DHT22;31504;51.716;9.184;2022-08-20T09:47:26;24.60;69.80
45803;DHT22;31504;51.716;9.184;2022-08-20T09:50:29;24.60;69.80
45803;DHT22;31504;51.716;9.184;2022-08-20T09:53:30;24.60;69.80
45803;DHT22;31504;51.716;9.184;2022-08-20T09:56:32;24.60;69.90
45803;DHT22;31504;51.716;9.184;2022-08-20T09:59:35;24.60;70.40
45803;DHT22;31504;51.716;9.184;2022-08-20T10:02:35;24.60;70.70
45803;DHT22;31504;51.716;9.184;2022-08-20T10:05:36;24.60;70.80
45803;DHT22;31504;51.716;9.184;2022-08-20T10:08:37;24.60;71.00
45803;DHT22;31504;51.716;9.184;2022-08-20T10:11:37;24.60;70.70
45803;DHT22;31504;51.716;9.184;2022-08-20T10:14:38;24.60;71.60
45803;DHT22;31504;51.716;9.184;2022-08-20T10:17:41;24.60;71.10
45803;DHT22;31504;51.716;9.184;2022-08-20T10:20:41;24.60;70.90
45803;DHT22;31504;51.716;9.184;2022-08-20T10:23:42;24.60;70.50
45803;DHT22;31504;51.716;9.184;2022-08-20T10:26:43;24.60;70.30
45803;DHT22;31504;51.716;9.184;2022-08-20T10:29:43;24.60;70.60
45803;DHT22;31504;51.716;9.184;2022-08-20T10:32:44;24.60;70.70
45803;DHT22;31504;51.716;9.184;2022-08-20T10:35:44;24.60;70.60
45803;DHT22;31504;51.716;9.184;2022-08-20T10:38:45;24.60;70.30
45803;DHT22;31504;51.716;9.184;2022-08-20T10:41:47;24.60;70.30
45803;DHT22;31504;51.716;9.184;2022-08-20T10:44:48;24.60;70.00
45803;DHT22;31504;51.716;9.184;2022-08-20T10:47:48;24.70;69.80
45803;DHT22;31504;51.716;9.184;2022-08-20T10:50:49;24.60;69.60
45803;DHT22;31504;51.716;9.184;2022-08-20T10:53:50;24.70;69.40
45803;DHT22;31504;51.716;9.184;2022-08-20T10:56:50;24.70;69.10
45803;DHT22;31504;51.716;9.184;2022-08-20T10:59:53;24.70;68.80
45803;DHT22;31504;51.716;9.184;2022-08-20T11:02:54;24.70;68.80
45803;DHT22;31504;51.716;9.184;2022-08-20T11:05:54;24.70;68.60
45803;DHT22;31504;51.716;9.184;2022-08-20T11:08:55;24.70;67.80
45803;DHT22;31504;51.716;9.184;2022-08-20T11:11:55;24.70;67.50
45803;DHT22;31504;51.716;9.184;2022-08-20T11:14:59;24.60;67.10
45803;DHT22;31504;51.716;9.184;2022-08-20T11:18:00;24.60;67.10
45803;DHT22;31504;51.716;9.184;2022-08-20T11:21:00;24.60;67.20
45803;DHT22;31504;51.716;9.184;2022-08-20T11:24:01;24.60;67.20
45803;DHT22;31504;51.716;9.184;2022-08-20T11:27:02;24.70;67.30
45803;DHT22;31504;51.716;9.184;2022-08-20T11:30:05;24.70;67.30
45803;DHT22;31504;51.716;9.184;2022-08-20T11:33:06;24.70;67.30
45803;DHT22;31504;51.716;9.184;2022-08-20T11:36:07;24.70;67.50
45803;DHT22;31504;51.716;9.184;2022-08-20T11:39:08;24.70;67.70
45803;DHT22;31504;51.716;9.184;2022-08-20T11:42:08;24.70;67.80
45803;DHT22;31504;51.716;9.184;2022-08-20T11:45:09;24.70;67.80
45803;DHT22;31504;51.716;9.184;2022-08-20T11:48:10;24.70;67.50
45803;DHT22;31504;51.716;9.184;2022-08-20T11:51:10;24.70;67.30
45803;DHT22;31504;51.716;9.184;2022-08-20T11:54:11;24.60;67.10
45803;DHT22;31504;51.716;9.184;2022-08-20T11:57:11;24.60;66.90
45803;DHT22;31504;51.716;9.184;2022-08-20T12:00:18;24.60;66.90
45803;DHT22;31504;51.716;9.184;2022-08-20T12:03:19;24.60;66.90
45803;DHT22;31504;51.716;9.184;2022-08-20T12:06:19;24.50;67.80
45803;DHT22;31504;51.716;9.184;2022-08-20T12:09:20;24.40;67.10
45803;DHT22;31504;51.716;9.184;2022-08-20T12:12:22;24.40;67.00
45803;DHT22;31504;51.716;9.184;2022-08-20T12:15:24;24.30;67.10
45803;DHT22;31504;51.716;9.184;2022-08-20T12:18:26;24.30;67.10
45803;DHT22;31504;51.716;9.184;2022-08-20T12:21:27;24.30;67.20
45803;DHT22;31504;51.716;9.184;2022-08-20T12:24:27;24.40;67.10
45803;DHT22;31504;51.716;9.184;2022-08-20T12:27:30;24.40;67.40
45803;DHT22;31504;51.716;9.184;2022-08-20T12:30:31;24.40;67.60
45803;DHT22;31504;51.716;9.184;2022-08-20T12:33:32;24.40;67.90
45803;DHT22;31504;51.716;9.184;2022-08-20T12:36:32;24.40;68.20
45803;DHT22;31504;51.716;9.184;2022-08-20T12:39:33;24.30;68.20
45803;DHT22;31504;51.716;9.184;2022-08-20T12:42:34;24.40;68.10
45803;DHT22;31504;51.716;9.184;2022-08-20T12:45:35;24.40;68.10
45803;DHT22;31504;51.716;9.184;2022-08-20T12:48:36;24.40;67.70
45803;DHT22;31504;51.716;9.184;2022-08-20T12:51:36;24.50;68.00
45803;DHT22;31504;51.716;9.184;2022-08-20T12:54:37;24.50;67.70
45803;DHT22;31504;51.716;9.184;2022-08-20T12:57:47;24.40;67.40
45803;DHT22;31504;51.716;9.184;2022-08-20T13:00:48;24.40;67.00
45803;DHT22;31504;51.716;9.184;2022-08-20T13:03:49;24.50;66.70
45803;DHT22;31504;51.716;9.184;2022-08-20T13:06:50;24.50;66.50
45803;DHT22;31504;51.716;9.184;2022-08-20T13:09:51;24.40;66.30
45803;DHT22;31504;51.716;9.184;2022-08-20T13:12:51;24.40;66.40
45803;DHT22;31504;51.716;9.184;2022-08-20T13:15:52;24.40;66.60
45803;DHT22;31504;51.716;9.184;2022-08-20T13:18:52;24.40;66.30
45803;DHT22;31504;51.716;9.184;2022-08-20T13:21:53;24.40;66.30
45803;DHT22;31504;51.716;9.184;2022-08-20T13:24:53;24.50;65.80
45803;DHT22;31504;51.716;9.184;2022-08-20T13:27:57;24.40;65.60
45803;DHT22;31504;51.716;9.184;2022-08-20T13:30:58;24.40;65.80
45803;DHT22;31504;51.716;9.184;2022-08-20T13:34:01;24.40;65.80
45803;DHT22;31504;51.716;9.184;2022-08-20T13:37:01;24.40;65.50
45803;DHT22;31504;51.716;9.184;2022-08-20T13:40:02;24.40;65.40
45803;DHT22;31504;51.716;9.184;2022-08-20T13:43:03;24.40;65.10
45803;DHT22;31504;51.716;9.184;2022-08-20T13:46:04;24.40;65.20
45803;DHT22;31504;51.716;9.184;2022-08-20T13:49:05;24.40;65.40
45803;DHT22;31504;51.716;9.184;2022-08-20T13:52:06;24.40;65.40
45803;DHT22;31504;51.716;9.184;2022-08-20T13:55:08;24.40;65.30
45803;DHT22;31504;51.716;9.184;2022-08-20T13:58:09;24.40;65.30
45803;DHT22;31504;51.716;9.184;2022-08-20T14:01:09;24.40;65.60
45803;DHT22;31504;51.716;9.184;2022-08-20T14:04:10;24.40;65.70
45803;DHT22;31504;51.716;9.184;2022-08-20T14:07:26;24.40;65.90
45803;DHT22;31504;51.716;9.184;2022-08-20T14:10:27;24.40;65.80
45803;DHT22;31504;51.716;9.184;2022-08-20T14:13:31;24.50;65.80
45803;DHT22;31504;51.716;9.184;2022-08-20T14:16:32;24.40;65.80
45803;DHT22;31504;51.716;9.184;2022-08-20T14:19:36;24.40;66.10
45803;DHT22;31504;51.716;9.184;2022-08-20T14:22:37;24.40;66.20
45803;DHT22;31504;51.716;9.184;2022-08-20T14:25:37;24.50;66.10
45803;DHT22;31504;51.716;9.184;2022-08-20T14:28:38;24.50;66.00
45803;DHT22;31504;51.716;9.184;2022-08-20T14:31:38;24.50;65.90
45803;DHT22;31504;51.716;9.184;2022-08-20T14:34:39;24.50;66.00
45803;DHT22;31504;51.716;9.184;2022-08-20T14:37:47;24.50;66.10
45803;DHT22;31504;51.716;9.184;2022-08-20T14:40:47;24.50;66.00
45803;DHT22;31504;51.716;9.184;2022-08-20T14:43:49;24.50;65.90
45803;DHT22;31504;51.716;9.184;2022-08-20T14:46:50;24.60;65.90
45803;DHT22;31504;51.716;9.184;2022-08-20T14:49:52;24.60;66.00
45803;DHT22;31504;51.716;9.184;2022-08-20T14:52:54;24.50;65.80
45803;DHT22;31504;51.716;9.184;2022-08-20T14:55:55;24.50;65.40
45803;DHT22;31504;51.716;9.184;2022-08-20T14:58:55;24.50;65.10
45803;DHT22;31504;51.716;9.184;2022-08-20T15:01:55;24.50;64.90
45803;DHT22;31504;51.716;9.184;2022-08-20T15:04:56;24.60;64.90
45803;DHT22;31504;51.716;9.184;2022-08-20T15:07:57;24.60;64.80
45803;DHT22;31504;51.716;9.184;2022-08-20T15:10:58;24.60;64.40
45803;DHT22;31504;51.716;9.184;2022-08-20T15:13:58;24.50;64.30
45803;DHT22;31504;51.716;9.184;2022-08-20T15:16:59;24.50;63.40
45803;DHT22;31504;51.716;9.184;2022-08-20T15:20:08;24.60;63.70
45803;DHT22;31504;51.716;9.184;2022-08-20T15:23:10;24.60;63.90
45803;DHT22;31504;51.716;9.184;2022-08-20T15:26:11;24.60;63.70
45803;DHT22;31504;51.716;9.184;2022-08-20T15:29:12;24.60;63.80
45803;DHT22;31504;51.716;9.184;2022-08-20T15:32:13;24.60;63.90
45803;DHT22;31504;51.716;9.184;2022-08-20T15:35:13;24.60;63.90
45803;DHT22;31504;51.716;9.184;2022-08-20T15:38:14;24.60;63.90
45803;DHT22;31504;51.716;9.184;2022-08-20T15:41:14;24.60;63.80
45803;DHT22;31504;51.716;9.184;2022-08-20T15:44:15;24.60;63.70
45803;DHT22;31504;51.716;9.184;2022-08-20T15:47:31;24.60;63.70
45803;DHT22;31504;51.716;9.184;2022-08-20T16:00:25;24.60;63.20
45803;DHT22;31504;51.716;9.184;2022-08-20T16:03:53;24.60;63.00
45803;DHT22;31504;51.716;9.184;2022-08-20T16:06:59;24.60;63.10
45803;DHT22;31504;51.716;9.184;2022-08-20T16:13:07;24.60;63.00
45803;DHT22;31504;51.716;9.184;2022-08-20T16:16:15;24.60;62.70
45803;DHT22;31504;51.716;9.184;2022-08-20T16:19:21;24.60;62.70
45803;DHT22;31504;51.716;9.184;2022-08-20T16:22:26;24.50;62.40
45803;DHT22;31504;51.716;9.184;2022-08-20T16:25:32;24.50;62.10
45803;DHT22;31504;51.716;9.184;2022-08-20T16:32:09;24.40;62.70
45803;DHT22;31504;51.716;9.184;2022-08-20T16:35:34;24.40;63.00
45803;DHT22;31504;51.716;9.184;2022-08-20T16:38:48;24.40;63.10
45803;DHT22;31504;51.716;9.184;2022-08-20T16:41:51;24.40;63.10
45803;DHT22;31504;51.716;9.184;2022-08-20T16:44:53;24.40;63.00
45803;DHT22;31504;51.716;9.184;2022-08-20T16:48:01;24.40;63.00
45803;DHT22;31504;51.716;9.184;2022-08-20T16:51:10;24.40;63.10
45803;DHT22;31504;51.716;9.184;2022-08-20T16:54:16;24.40;63.10
45803;DHT22;31504;51.716;9.184;2022-08-20T16:57:17;24.40;63.30
45803;DHT22;31504;51.716;9.184;2022-08-20T17:00:25;24.50;63.40
45803;DHT22;31504;51.716;9.184;2022-08-20T17:03:29;24.40;63.30
45803;DHT22;31504;51.716;9.184;2022-08-20T17:06:38;24.40;63.40
45803;DHT22;31504;51.716;9.184;2022-08-20T17:09:42;24.40;63.20
45803;DHT22;31504;51.716;9.184;2022-08-20T17:12:43;24.40;63.10
45803;DHT22;31504;51.716;9.184;2022-08-20T17:15:56;24.40;63.00
45803;DHT22;31504;51.716;9.184;2022-08-20T17:19:12;24.40;62.90
45803;DHT22;31504;51.716;9.184;2022-08-20T17:22:17;24.40;62.90
45803;DHT22;31504;51.716;9.184;2022-08-20T17:25:32;24.40;62.80
45803;DHT22;31504;51.716;9.184;2022-08-20T17:28:36;24.40;63.00
45803;DHT22;31504;51.716;9.184;2022-08-20T17:31:40;24.40;62.50
45803;DHT22;31504;51.716;9.184;2022-08-20T17:34:45;24.40;62.40
45803;DHT22;31504;51.716;9.184;2022-08-20T17:37:51;24.30;62.40
45803;DHT22;31504;51.716;9.184;2022-08-20T17:40:58;24.40;62.50
45803;DHT22;31504;51.716;9.184;2022-08-20T17:47:04;24.40;62.30
45803;DHT22;31504;51.716;9.184;2022-08-20T17:50:15;24.40;62.20
45803;DHT22;31504;51.716;9.184;2022-08-20T17:53:19;24.40;62.20
45803;DHT22;31504;51.716;9.184;2022-08-20T17:56:26;24.30;62.00
45803;DHT22;31504;51.716;9.184;2022-08-20T17:59:41;24.30;61.90
45803;DHT22;31504;51.716;9.184;2022-08-20T18:02:42;24.30;61.80
45803;DHT22;31504;51.716;9.184;2022-08-20T18:05:44;24.30;61.90
45803;DHT22;31504;51.716;9.184;2022-08-20T18:09:14;24.30;61.80
45803;DHT22;31504;51.716;9.184;2022-08-20T18:19:13;24.30;62.20
45803;DHT22;31504;51.716;9.184;2022-08-20T18:22:29;24.30;62.20
45803;DHT22;31504;51.716;9.184;2022-08-20T18:25:51;24.40;62.30
45803;DHT22;31504;51.716;9.184;2022-08-20T18:29:00;24.40;62.30
45803;DHT22;31504;51.716;9.184;2022-08-20T18:32:09;24.30;62.20
45803;DHT22;31504;51.716;9.184;2022-08-20T18:35:29;24.30;62.20
45803;DHT22;31504;51.716;9.184;2022-08-20T18:38:31;24.30;62.20
45803;DHT22;31504;51.716;9.184;2022-08-20T18:41:53;24.30;62.30
45803;DHT22;31504;51.716;9.184;2022-08-20T18:44:56;24.30;62.40
45803;DHT22;31504;51.716;9.184;2022-08-20T18:47:57;24.30;62.40
45803;DHT22;31504;51.716;9.184;2022-08-20T18:50:58;24.30;62.50
45803;DHT22;31504;51.716;9.184;2022-08-20T18:54:03;24.30;62.50
45803;DHT22;31504;51.716;9.184;2022-08-20T18:57:06;24.30;62.50
45803;DHT22;31504;51.716;9.184;2022-08-20T19:00:14;24.30;62.40
45803;DHT22;31504;51.716;9.184;2022-08-20T19:06:43;24.20;62.30
45803;DHT22;31504;51.716;9.184;2022-08-20T19:10:11;24.20;62.20
45803;DHT22;31504;51.716;9.184;2022-08-20T19:16:40;24.20;62.20
45803;DHT22;31504;51.716;9.184;2022-08-20T19:19:42;24.10;62.30
45803;DHT22;31504;51.716;9.184;2022-08-20T19:22:44;24.10;62.30
45803;DHT22;31504;51.716;9.184;2022-08-20T19:26:16;24.20;62.30
45803;DHT22;31504;51.716;9.184;2022-08-20T19:29:22;24.20;62.20
45803;DHT22;31504;51.716;9.184;2022-08-20T19:32:27;24.20;62.30
45803;DHT22;31504;51.716;9.184;2022-08-20T19:35:29;24.20;62.40
45803;DHT22;31504;51.716;9.184;2022-08-20T19:38:29;24.20;62.60
45803;DHT22;31504;51.716;9.184;2022-08-20T19:41:33;24.20;62.70
45803;DHT22;31504;51.716;9.184;2022-08-20T19:44:40;24.20;62.70
45803;DHT22;31504;51.716;9.184;2022-08-20T19:48:01;24.20;62.70
45803;DHT22;31504;51.716;9.184;2022-08-20T19:51:28;24.20;62.60